createdAt,value
2023-05-19T00:00:36.164Z,7
2023-05-19T00:05:52.563Z,6
2023-05-19T00:11:08.894Z,9
2023-05-19T00:16:25.469Z,7
2023-05-19T00:21:41.630Z,8
2023-05-19T00:26:57.943Z,7
2023-05-19T00:32:14.400Z,9
2023-05-19T00:37:30.656Z,7
2023-05-19T00:42:47.004Z,8
2023-05-19T00:48:03.405Z,6
2023-05-19T00:53:19.706Z,7
2023-05-19T00:58:36.051Z,8
2023-05-19T01:03:52.518Z,7
2023-05-19T01:09:08.755Z,8
2023-05-19T01:14:25.111Z,9
2023-05-19T01:19:41.469Z,6
2023-05-19T01:24:57.833Z,5
2023-05-19T01:30:14.166Z,7
2023-05-19T01:35:30.534Z,6
2023-05-19T01:40:46.892Z,6
2023-05-19T01:46:03.311Z,9
2023-05-19T01:51:19.656Z,7
2023-05-19T01:56:36.002Z,7
2023-05-19T02:01:52.377Z,6
2023-05-19T02:07:08.696Z,8
2023-05-19T02:12:25.059Z,6
2023-05-19T02:17:41.456Z,6
2023-05-19T02:22:57.782Z,6
2023-05-19T02:28:14.092Z,7
2023-05-19T02:33:30.461Z,8
2023-05-19T02:38:46.800Z,6
2023-05-19T02:44:03.182Z,8
2023-05-19T02:49:19.506Z,7
2023-05-19T02:54:35.863Z,6
2023-05-19T02:59:52.228Z,10
2023-05-19T03:05:08.598Z,8
2023-05-19T03:10:24.953Z,6
2023-05-19T03:15:41.302Z,6
2023-05-19T03:20:57.674Z,6
2023-05-19T03:26:14.021Z,6
2023-05-19T03:31:30.352Z,7
2023-05-19T03:36:46.742Z,6
2023-05-19T03:42:03.114Z,6
2023-05-19T03:47:19.449Z,6
2023-05-19T03:52:35.860Z,8
2023-05-19T03:57:52.173Z,9
2023-05-19T04:03:08.670Z,6
2023-05-19T04:08:24.888Z,8
2023-05-19T04:13:41.233Z,7
2023-05-19T04:18:57.609Z,9
2023-05-19T04:24:13.951Z,10
2023-05-19T04:29:30.313Z,11
2023-05-19T04:34:46.710Z,10
2023-05-19T04:40:03.045Z,11
2023-05-19T04:45:19.415Z,8
2023-05-19T04:50:35.767Z,12
2023-05-19T04:55:52.172Z,12
2023-05-19T05:01:08.541Z,12
2023-05-19T05:06:24.882Z,10
2023-05-19T05:11:41.235Z,8
2023-05-19T05:16:57.585Z,10
2023-05-19T05:22:13.944Z,5
2023-05-19T05:27:30.288Z,6
2023-05-19T05:32:46.743Z,7
2023-05-19T05:38:02.977Z,9
2023-05-19T05:43:19.334Z,8
2023-05-19T05:48:35.676Z,14
2023-05-19T05:53:52.034Z,10
2023-05-19T05:59:08.363Z,6
2023-05-19T06:04:24.747Z,4
2023-05-19T06:09:41.061Z,4
2023-05-19T06:14:57.405Z,3
2023-05-19T06:20:13.742Z,4
2023-05-19T06:25:30.294Z,4
2023-05-19T06:30:46.777Z,4
2023-05-19T06:36:02.768Z,2
2023-05-19T06:41:19.114Z,2
2023-05-19T06:46:35.484Z,2
2023-05-19T06:51:51.807Z,2
2023-05-19T06:57:08.143Z,2
2023-05-19T07:02:24.506Z,2
2023-05-19T07:07:40.813Z,5
2023-05-19T07:12:57.186Z,2
2023-05-19T07:18:13.563Z,2
2023-05-19T07:23:29.861Z,1
2023-05-19T07:28:46.185Z,1
2023-05-19T07:34:02.529Z,7
2023-05-19T07:39:18.871Z,2
2023-05-19T07:44:35.203Z,1
2023-05-19T07:49:52.105Z,2
2023-05-19T07:55:07.872Z,1
2023-05-19T08:00:24.282Z,2
2023-05-19T08:05:40.551Z,3
2023-05-19T08:11:05.817Z,2
2023-05-19T08:16:22.295Z,2
2023-05-19T08:21:38.528Z,1
2023-05-19T08:26:54.815Z,1
2023-05-19T08:32:13.059Z,1
2023-05-19T08:37:27.495Z,1
2023-05-19T08:42:43.834Z,1
2023-05-19T08:48:00.295Z,1
2023-05-19T08:53:31.718Z,1
2023-05-19T08:58:32.810Z,1
2023-05-19T09:03:49.196Z,1
2023-05-19T09:09:05.477Z,2
2023-05-19T09:14:21.831Z,2
2023-05-19T09:19:38.181Z,2
2023-05-19T09:24:54.518Z,2
2023-05-19T09:30:10.844Z,2
2023-05-19T09:35:27.186Z,3
2023-05-19T09:40:43.528Z,3
2023-05-19T09:45:59.891Z,2
2023-05-19T09:51:16.241Z,2
2023-05-19T09:56:32.548Z,3
2023-05-19T10:01:48.972Z,2
2023-05-19T10:07:05.216Z,2
2023-05-19T10:12:21.582Z,3
2023-05-19T10:17:37.918Z,2
2023-05-19T10:22:54.254Z,2
2023-05-19T10:28:10.604Z,2
2023-05-19T10:33:26.946Z,2
2023-05-19T10:38:43.381Z,3
2023-05-19T10:43:59.623Z,3
2023-05-19T10:49:15.953Z,4
2023-05-19T10:54:32.335Z,5
2023-05-19T10:59:48.596Z,5
2023-05-19T11:05:04.931Z,5
2023-05-19T11:10:21.587Z,4
2023-05-19T11:15:37.590Z,5
2023-05-19T11:20:54.069Z,4
2023-05-19T11:26:10.287Z,4
2023-05-19T11:31:26.701Z,5
2023-05-19T11:36:42.959Z,5
2023-05-19T11:41:59.295Z,3
2023-05-19T11:47:15.613Z,6
2023-05-19T11:52:31.977Z,3
2023-05-19T11:58:02.118Z,5
2023-05-19T12:03:04.764Z,4
2023-05-19T12:08:20.961Z,5
2023-05-19T12:13:37.307Z,3
2023-05-19T12:18:53.649Z,5
2023-05-19T12:24:09.975Z,4
2023-05-19T12:29:26.284Z,4
2023-05-19T12:34:42.628Z,4
2023-05-19T12:39:58.943Z,4
2023-05-19T12:45:15.282Z,6
2023-05-19T12:50:31.851Z,4
2023-05-19T12:55:47.904Z,5
2023-05-19T13:01:04.422Z,4
2023-05-19T13:06:20.610Z,6
2023-05-19T13:11:36.975Z,5
2023-05-19T13:16:53.340Z,4
2023-05-19T13:22:09.660Z,4
2023-05-19T13:27:25.982Z,5
2023-05-19T13:32:42.804Z,7
2023-05-19T13:37:59.095Z,5
2023-05-19T13:43:15.448Z,6
2023-05-19T13:48:31.770Z,9
2023-05-19T13:53:48.125Z,8
2023-05-19T13:59:04.447Z,7
2023-05-19T14:04:21.032Z,6
2023-05-19T14:09:37.117Z,10
2023-05-19T14:14:53.503Z,8
2023-05-19T14:20:09.892Z,8
2023-05-19T14:25:26.141Z,8
2023-05-19T14:30:42.503Z,7
2023-05-19T14:35:58.815Z,8
2023-05-19T14:41:15.355Z,14
2023-05-19T14:46:31.504Z,7
2023-05-19T14:51:47.839Z,6
2023-05-19T14:57:04.173Z,7
2023-05-19T15:02:20.527Z,7
2023-05-19T15:07:36.834Z,6
2023-05-19T15:12:53.188Z,5
2023-05-19T15:18:09.553Z,3
2023-05-19T15:23:25.864Z,4
2023-05-19T15:28:42.210Z,2
2023-05-19T15:33:58.557Z,6
2023-05-19T15:39:14.886Z,7
2023-05-19T15:44:31.234Z,7
2023-05-19T15:49:47.563Z,7
2023-05-19T15:55:03.911Z,8
2023-05-19T16:00:20.274Z,10
2023-05-19T16:05:36.694Z,7
2023-05-19T16:10:53.015Z,9
2023-05-19T16:16:09.380Z,10
2023-05-19T16:21:25.660Z,14
2023-05-19T16:26:42.007Z,10
2023-05-19T16:31:58.467Z,8
2023-05-19T16:37:14.689Z,11
2023-05-19T16:42:31.071Z,20
2023-05-19T16:47:47.466Z,13
2023-05-19T16:53:03.779Z,8
2023-05-19T16:58:20.120Z,12
2023-05-19T17:03:36.503Z,9
2023-05-19T17:08:52.806Z,12
2023-05-19T17:14:09.201Z,13
2023-05-19T17:19:25.528Z,9
2023-05-19T17:24:41.859Z,8
2023-05-19T17:29:58.185Z,8
2023-05-19T17:35:14.549Z,9
2023-05-19T17:40:30.959Z,8
2023-05-19T17:45:47.232Z,6
2023-05-19T17:51:05.109Z,8
2023-05-19T17:56:19.931Z,5
2023-05-19T18:01:36.306Z,8
2023-05-19T18:06:52.642Z,11
2023-05-19T18:12:08.991Z,11
2023-05-19T18:17:25.481Z,8
2023-05-19T18:22:41.685Z,8
2023-05-19T18:27:58.051Z,7
2023-05-19T18:33:14.368Z,5
2023-05-19T18:38:30.710Z,6
2023-05-19T18:43:47.079Z,7
2023-05-19T18:49:03.391Z,10
2023-05-19T18:54:19.737Z,5
2023-05-19T18:59:36.084Z,6
2023-05-19T19:04:52.579Z,6
2023-05-19T19:10:08.779Z,7
2023-05-19T19:15:25.137Z,6
2023-05-19T19:20:41.485Z,8
2023-05-19T19:25:57.831Z,13
2023-05-19T19:31:14.227Z,9
2023-05-19T19:36:30.498Z,8
2023-05-19T19:41:46.883Z,9
2023-05-19T19:47:03.212Z,11
2023-05-19T19:52:19.549Z,10
2023-05-19T19:57:35.888Z,9
2023-05-19T20:03:04.476Z,14
2023-05-19T20:08:08.583Z,14
2023-05-19T20:13:24.946Z,9
2023-05-19T20:18:41.323Z,11
2023-05-19T20:23:57.649Z,11
2023-05-19T20:29:13.998Z,9
2023-05-19T20:34:30.392Z,10
2023-05-19T20:39:46.688Z,10
2023-05-19T20:45:03.042Z,10
2023-05-19T20:50:19.402Z,12
2023-05-19T20:55:35.795Z,11
2023-05-19T21:00:52.131Z,10
2023-05-19T21:06:08.426Z,9
2023-05-19T21:11:24.785Z,11
2023-05-19T21:16:41.197Z,10
2023-05-19T21:21:57.470Z,11
2023-05-19T21:27:13.864Z,43
2023-05-19T21:32:30.278Z,17
2023-05-19T21:37:46.595Z,14
2023-05-19T21:43:02.941Z,18
2023-05-19T21:48:19.333Z,19
2023-05-19T21:53:35.656Z,15
2023-05-19T21:58:52.011Z,15
2023-05-19T22:04:08.397Z,10
2023-05-19T22:09:24.702Z,14
2023-05-19T22:14:41.081Z,14
2023-05-19T22:19:57.420Z,14
2023-05-19T22:25:13.798Z,16
2023-05-19T22:30:30.133Z,13
2023-05-19T22:35:46.480Z,14
2023-05-19T22:41:02.861Z,16
2023-05-19T22:46:19.243Z,16
2023-05-19T22:51:35.589Z,15
2023-05-19T22:56:51.927Z,15
2023-05-19T23:02:08.280Z,16
2023-05-19T23:07:24.628Z,14
2023-05-19T23:12:41.002Z,19
2023-05-19T23:17:57.362Z,14
2023-05-19T23:23:13.682Z,15
2023-05-19T23:28:30.037Z,16
2023-05-19T23:33:46.390Z,13
2023-05-19T23:39:02.720Z,13
2023-05-19T23:44:19.093Z,15
2023-05-19T23:49:35.435Z,14
2023-05-19T23:54:51.800Z,17
